sensor_id;sensor_type;location;lat;lon;timestamp;temperature;humidity
9881;DHT22;4979;51.014;6.678;2023-05-19T00:01:11;11.20;99.90
9881;DHT22;4979;51.014;6.678;2023-05-19T00:06:05;11.30;99.90
9881;DHT22;4979;51.014;6.678;2023-05-19T00:08:37;11.30;99.90
9881;DHT22;4979;51.014;6.678;2023-05-19T00:11:03;11.40;99.90
9881;DHT22;4979;51.014;6.678;2023-05-19T00:13:29;11.40;99.90
9881;DHT22;4979;51.014;6.678;2023-05-19T00:15:54;11.30;99.90
9881;DHT22;4979;51.014;6.678;2023-05-19T00:18:20;11.30;99.90
9881;DHT22;4979;51.014;6.678;2023-05-19T00:20:47;11.30;99.90
9881;DHT22;4979;51.014;6.678;2023-05-19T00:25:39;11.30;99.90
9881;DHT22;4979;51.014;6.678;2023-05-19T00:30:30;11.20;99.90
9881;DHT22;4979;51.014;6.678;2023-05-19T00:35:22;11.20;99.90
9881;DHT22;4979;51.014;6.678;2023-05-19T00:37:48;11.10;99.90
9881;DHT22;4979;51.014;6.678;2023-05-19T00:42:40;11.20;99.90
9881;DHT22;4979;51.014;6.678;2023-05-19T00:45:06;11.10;99.90
9881;DHT22;4979;51.014;6.678;2023-05-19T00:47:32;11.00;99.90
9881;DHT22;4979;51.014;6.678;2023-05-19T00:49:58;10.90;99.90
9881;DHT22;4979;51.014;6.678;2023-05-19T00:52:24;10.90;99.90
9881;DHT22;4979;51.014;6.678;2023-05-19T00:54:51;10.90;99.90
9881;DHT22;4979;51.014;6.678;2023-05-19T00:57:18;11.00;99.90
9881;DHT22;4979;51.014;6.678;2023-05-19T01:02:10;11.00;99.90
9881;DHT22;4979;51.014;6.678;2023-05-19T01:04:37;11.00;99.90
9881;DHT22;4979;51.014;6.678;2023-05-19T01:07:04;11.00;99.90
9881;DHT22;4979;51.014;6.678;2023-05-19T01:09:30;11.00;99.90
9881;DHT22;4979;51.014;6.678;2023-05-19T01:11:56;11.00;99.90
9881;DHT22;4979;51.014;6.678;2023-05-19T01:14:22;11.10;99.90
9881;DHT22;4979;51.014;6.678;2023-05-19T01:17:01;11.00;99.90
9881;DHT22;4979;51.014;6.678;2023-05-19T01:20:02;10.90;99.90
9881;DHT22;4979;51.014;6.678;2023-05-19T01:30:42;10.80;99.90
9881;DHT22;4979;51.014;6.678;2023-05-19T01:33:11;10.90;99.90
9881;DHT22;4979;51.014;6.678;2023-05-19T01:35:39;10.80;99.90
9881;DHT22;4979;51.014;6.678;2023-05-19T01:38:08;10.70;99.90
9881;DHT22;4979;51.014;6.678;2023-05-19T01:40:35;10.70;99.90
9881;DHT22;4979;51.014;6.678;2023-05-19T01:45:29;10.70;99.90
9881;DHT22;4979;51.014;6.678;2023-05-19T01:47:57;10.70;99.90
9881;DHT22;4979;51.014;6.678;2023-05-19T01:52:49;10.70;99.90
9881;DHT22;4979;51.014;6.678;2023-05-19T01:55:15;10.70;99.90
9881;DHT22;4979;51.014;6.678;2023-05-19T02:03:43;10.50;99.90
9881;DHT22;4979;51.014;6.678;2023-05-19T02:08:56;10.40;99.90
9881;DHT22;4979;51.014;6.678;2023-05-19T02:11:46;10.30;99.90
9881;DHT22;4979;51.014;6.678;2023-05-19T02:14:15;10.30;99.90
9881;DHT22;4979;51.014;6.678;2023-05-19T02:16:44;10.30;99.90
9881;DHT22;4979;51.014;6.678;2023-05-19T02:19:25;10.40;99.90
9881;DHT22;4979;51.014;6.678;2023-05-19T02:24:17;10.20;99.90
9881;DHT22;4979;51.014;6.678;2023-05-19T02:26:44;10.20;99.90
9881;DHT22;4979;51.014;6.678;2023-05-19T02:29:10;10.00;99.90
9881;DHT22;4979;51.014;6.678;2023-05-19T02:34:02;10.20;99.90
9881;DHT22;4979;51.014;6.678;2023-05-19T02:38:53;10.20;99.90
9881;DHT22;4979;51.014;6.678;2023-05-19T02:41:19;10.20;99.90
9881;DHT22;4979;51.014;6.678;2023-05-19T02:43:46;10.20;99.90
9881;DHT22;4979;51.014;6.678;2023-05-19T02:46:12;10.10;99.90
9881;DHT22;4979;51.014;6.678;2023-05-19T02:48:37;10.10;99.90
9881;DHT22;4979;51.014;6.678;2023-05-19T02:51:03;10.10;99.90
9881;DHT22;4979;51.014;6.678;2023-05-19T02:53:31;10.10;99.90
9881;DHT22;4979;51.014;6.678;2023-05-19T02:58:22;10.10;99.90
9881;DHT22;4979;51.014;6.678;2023-05-19T03:05:40;10.00;99.90
9881;DHT22;4979;51.014;6.678;2023-05-19T03:10:31;9.90;99.90
9881;DHT22;4979;51.014;6.678;2023-05-19T03:12:57;9.90;99.90
9881;DHT22;4979;51.014;6.678;2023-05-19T03:15:22;10.00;99.90
9881;DHT22;4979;51.014;6.678;2023-05-19T03:20:14;9.90;99.90
9881;DHT22;4979;51.014;6.678;2023-05-19T03:25:09;9.80;99.90
9881;DHT22;4979;51.014;6.678;2023-05-19T03:27:34;9.80;99.90
9881;DHT22;4979;51.014;6.678;2023-05-19T03:30:00;9.80;99.90
9881;DHT22;4979;51.014;6.678;2023-05-19T03:32:25;9.80;99.90
9881;DHT22;4979;51.014;6.678;2023-05-19T03:34:51;9.70;99.90
9881;DHT22;4979;51.014;6.678;2023-05-19T03:37:16;9.80;99.90
9881;DHT22;4979;51.014;6.678;2023-05-19T03:39:42;9.70;99.90
9881;DHT22;4979;51.014;6.678;2023-05-19T03:44:34;9.60;99.90
9881;DHT22;4979;51.014;6.678;2023-05-19T03:46:59;9.70;99.90
9881;DHT22;4979;51.014;6.678;2023-05-19T03:51:51;9.70;99.90
9881;DHT22;4979;51.014;6.678;2023-05-19T03:54:16;9.70;99.90
9881;DHT22;4979;51.014;6.678;2023-05-19T03:59:09;9.80;99.90
9881;DHT22;4979;51.014;6.678;2023-05-19T04:01:35;9.70;99.90
9881;DHT22;4979;51.014;6.678;2023-05-19T04:04:01;9.80;99.90
9881;DHT22;4979;51.014;6.678;2023-05-19T04:11:19;9.70;99.90
9881;DHT22;4979;51.014;6.678;2023-05-19T04:13:45;9.70;99.90
9881;DHT22;4979;51.014;6.678;2023-05-19T04:16:11;9.80;99.90
9881;DHT22;4979;51.014;6.678;2023-05-19T04:21:03;9.80;99.90
9881;DHT22;4979;51.014;6.678;2023-05-19T04:25:55;9.90;99.90
9881;DHT22;4979;51.014;6.678;2023-05-19T04:30:48;9.80;99.90
9881;DHT22;4979;51.014;6.678;2023-05-19T04:33:14;9.80;99.90
9881;DHT22;4979;51.014;6.678;2023-05-19T04:35:40;9.80;99.90
9881;DHT22;4979;51.014;6.678;2023-05-19T04:38:06;9.90;99.90
9881;DHT22;4979;51.014;6.678;2023-05-19T04:40:31;10.00;99.90
9881;DHT22;4979;51.014;6.678;2023-05-19T04:45:26;10.30;99.90
9881;DHT22;4979;51.014;6.678;2023-05-19T04:47:52;10.40;99.90
9881;DHT22;4979;51.014;6.678;2023-05-19T04:50:22;10.40;99.90
9881;DHT22;4979;51.014;6.678;2023-05-19T04:52:48;10.40;99.90
9881;DHT22;4979;51.014;6.678;2023-05-19T04:57:40;10.50;99.90
9881;DHT22;4979;51.014;6.678;2023-05-19T05:00:06;10.60;99.90
9881;DHT22;4979;51.014;6.678;2023-05-19T05:02:34;10.70;99.90
9881;DHT22;4979;51.014;6.678;2023-05-19T05:04:59;10.80;99.90
9881;DHT22;4979;51.014;6.678;2023-05-19T05:07:25;10.90;99.90
9881;DHT22;4979;51.014;6.678;2023-05-19T05:09:51;11.00;99.90
9881;DHT22;4979;51.014;6.678;2023-05-19T05:12:17;11.20;99.90
9881;DHT22;4979;51.014;6.678;2023-05-19T05:17:10;11.50;99.90
9881;DHT22;4979;51.014;6.678;2023-05-19T05:19:37;11.40;99.90
9881;DHT22;4979;51.014;6.678;2023-05-19T05:22:03;11.50;99.90
9881;DHT22;4979;51.014;6.678;2023-05-19T05:24:29;11.70;99.90
9881;DHT22;4979;51.014;6.678;2023-05-19T05:29:23;11.50;99.90
9881;DHT22;4979;51.014;6.678;2023-05-19T05:31:49;11.60;99.90
9881;DHT22;4979;51.014;6.678;2023-05-19T05:34:14;11.60;99.90
9881;DHT22;4979;51.014;6.678;2023-05-19T05:36:40;11.70;99.90
9881;DHT22;4979;51.014;6.678;2023-05-19T05:39:06;11.70;99.90
9881;DHT22;4979;51.014;6.678;2023-05-19T05:41:31;11.90;99.90
9881;DHT22;4979;51.014;6.678;2023-05-19T05:44:04;12.00;99.90
9881;DHT22;4979;51.014;6.678;2023-05-19T05:46:31;12.20;99.90
9881;DHT22;4979;51.014;6.678;2023-05-19T05:53:51;12.20;99.90
9881;DHT22;4979;51.014;6.678;2023-05-19T05:56:18;12.20;99.90
9881;DHT22;4979;51.014;6.678;2023-05-19T05:58:44;12.30;99.90
9881;DHT22;4979;51.014;6.678;2023-05-19T06:01:10;12.20;99.90
9881;DHT22;4979;51.014;6.678;2023-05-19T06:03:40;12.40;99.90
9881;DHT22;4979;51.014;6.678;2023-05-19T06:06:07;12.70;99.90
9881;DHT22;4979;51.014;6.678;2023-05-19T06:08:32;12.60;99.90
9881;DHT22;4979;51.014;6.678;2023-05-19T06:13:24;12.70;99.90
9881;DHT22;4979;51.014;6.678;2023-05-19T06:15:51;12.80;99.90
9881;DHT22;4979;51.014;6.678;2023-05-19T06:18:17;12.90;99.90
9881;DHT22;4979;51.014;6.678;2023-05-19T06:20:43;12.90;99.90
9881;DHT22;4979;51.014;6.678;2023-05-19T06:23:08;13.10;99.90
9881;DHT22;4979;51.014;6.678;2023-05-19T06:25:34;13.10;99.90
9881;DHT22;4979;51.014;6.678;2023-05-19T06:28:00;13.20;99.90
9881;DHT22;4979;51.014;6.678;2023-05-19T06:30:26;13.20;99.90
9881;DHT22;4979;51.014;6.678;2023-05-19T06:40:09;13.40;99.90
9881;DHT22;4979;51.014;6.678;2023-05-19T06:42:35;13.70;99.90
9881;DHT22;4979;51.014;6.678;2023-05-19T06:47:27;13.60;99.90
9881;DHT22;4979;51.014;6.678;2023-05-19T06:49:52;13.80;99.90
9881;DHT22;4979;51.014;6.678;2023-05-19T06:52:21;13.90;99.90
9881;DHT22;4979;51.014;6.678;2023-05-19T06:54:48;14.00;99.90
9881;DHT22;4979;51.014;6.678;2023-05-19T07:04:33;14.20;99.90
9881;DHT22;4979;51.014;6.678;2023-05-19T07:09:25;14.20;99.90
9881;DHT22;4979;51.014;6.678;2023-05-19T07:14:17;14.40;99.90
9881;DHT22;4979;51.014;6.678;2023-05-19T07:16:42;14.50;99.90
9881;DHT22;4979;51.014;6.678;2023-05-19T07:21:34;14.90;99.90
9881;DHT22;4979;51.014;6.678;2023-05-19T07:24:00;14.90;99.90
9881;DHT22;4979;51.014;6.678;2023-05-19T07:26:25;14.70;99.90
9881;DHT22;4979;51.014;6.678;2023-05-19T07:28:51;14.80;99.90
9881;DHT22;4979;51.014;6.678;2023-05-19T07:31:17;14.80;99.90
9881;DHT22;4979;51.014;6.678;2023-05-19T07:33:43;15.10;99.90
9881;DHT22;4979;51.014;6.678;2023-05-19T07:36:08;15.10;99.90
9881;DHT22;4979;51.014;6.678;2023-05-19T07:38:34;15.10;99.90
9881;DHT22;4979;51.014;6.678;2023-05-19T07:41:00;15.10;99.90
9881;DHT22;4979;51.014;6.678;2023-05-19T07:45:52;15.30;99.90
9881;DHT22;4979;51.014;6.678;2023-05-19T07:48:20;15.50;99.90
9881;DHT22;4979;51.014;6.678;2023-05-19T07:50:47;15.80;99.90
9881;DHT22;4979;51.014;6.678;2023-05-19T07:53:13;15.70;99.90
9881;DHT22;4979;51.014;6.678;2023-05-19T07:55:39;15.70;99.90
9881;DHT22;4979;51.014;6.678;2023-05-19T07:58:05;15.80;99.90
9881;DHT22;4979;51.014;6.678;2023-05-19T08:02:57;15.90;99.90
9881;DHT22;4979;51.014;6.678;2023-05-19T08:05:24;16.00;99.90
9881;DHT22;4979;51.014;6.678;2023-05-19T08:07:50;16.00;99.90
9881;DHT22;4979;51.014;6.678;2023-05-19T08:10:16;16.20;99.90
9881;DHT22;4979;51.014;6.678;2023-05-19T08:12:42;16.50;99.90
9881;DHT22;4979;51.014;6.678;2023-05-19T08:17:36;16.40;99.90
9881;DHT22;4979;51.014;6.678;2023-05-19T08:20:02;16.70;99.90
9881;DHT22;4979;51.014;6.678;2023-05-19T08:22:29;16.60;99.90
9881;DHT22;4979;51.014;6.678;2023-05-19T08:27:21;16.90;99.90
9881;DHT22;4979;51.014;6.678;2023-05-19T08:32:13;16.80;99.90
9881;DHT22;4979;51.014;6.678;2023-05-19T08:34:38;16.80;99.90
9881;DHT22;4979;51.014;6.678;2023-05-19T08:37:04;16.90;99.90
9881;DHT22;4979;51.014;6.678;2023-05-19T08:39:29;17.10;99.90
9881;DHT22;4979;51.014;6.678;2023-05-19T08:41:58;17.40;99.90
9881;DHT22;4979;51.014;6.678;2023-05-19T08:46:50;17.10;99.90
9881;DHT22;4979;51.014;6.678;2023-05-19T08:49:27;17.30;99.90
9881;DHT22;4979;51.014;6.678;2023-05-19T08:52:01;17.30;99.90
9881;DHT22;4979;51.014;6.678;2023-05-19T08:55:08;17.50;99.90
9881;DHT22;4979;51.014;6.678;2023-05-19T08:57:44;17.60;99.90
9881;DHT22;4979;51.014;6.678;2023-05-19T09:00:21;17.70;99.90
9881;DHT22;4979;51.014;6.678;2023-05-19T09:02:49;17.60;99.90
9881;DHT22;4979;51.014;6.678;2023-05-19T09:05:16;17.70;99.80
9881;DHT22;4979;51.014;6.678;2023-05-19T09:07:44;17.90;99.90
9881;DHT22;4979;51.014;6.678;2023-05-19T09:10:10;18.20;99.90
9881;DHT22;4979;51.014;6.678;2023-05-19T09:12:45;18.20;99.90
9881;DHT22;4979;51.014;6.678;2023-05-19T09:15:14;18.30;99.90
9881;DHT22;4979;51.014;6.678;2023-05-19T09:17:41;18.30;99.90
9881;DHT22;4979;51.014;6.678;2023-05-19T09:20:09;18.50;99.90
9881;DHT22;4979;51.014;6.678;2023-05-19T09:22:45;18.60;99.20
9881;DHT22;4979;51.014;6.678;2023-05-19T09:25:26;18.60;99.00
9881;DHT22;4979;51.014;6.678;2023-05-19T09:27:54;18.80;99.30
9881;DHT22;4979;51.014;6.678;2023-05-19T09:30:23;19.00;99.20
9881;DHT22;4979;51.014;6.678;2023-05-19T09:32:50;18.90;98.40
9881;DHT22;4979;51.014;6.678;2023-05-19T09:35:23;19.00;97.40
9881;DHT22;4979;51.014;6.678;2023-05-19T09:40:18;18.80;96.10
9881;DHT22;4979;51.014;6.678;2023-05-19T09:42:58;19.00;96.80
9881;DHT22;4979;51.014;6.678;2023-05-19T09:45:27;19.50;97.30
9881;DHT22;4979;51.014;6.678;2023-05-19T09:48:09;19.30;97.70
9881;DHT22;4979;51.014;6.678;2023-05-19T09:50:42;19.30;95.80
9881;DHT22;4979;51.014;6.678;2023-05-19T09:53:16;19.40;95.90
9881;DHT22;4979;51.014;6.678;2023-05-19T09:55:44;19.50;96.80
9881;DHT22;4979;51.014;6.678;2023-05-19T09:58:15;19.50;95.30
9881;DHT22;4979;51.014;6.678;2023-05-19T10:00:41;19.50;96.20
9881;DHT22;4979;51.014;6.678;2023-05-19T10:03:08;19.60;95.60
9881;DHT22;4979;51.014;6.678;2023-05-19T10:05:35;20.10;94.70
9881;DHT22;4979;51.014;6.678;2023-05-19T10:08:02;20.30;93.20
9881;DHT22;4979;51.014;6.678;2023-05-19T10:10:28;20.40;93.10
9881;DHT22;4979;51.014;6.678;2023-05-19T10:17:49;19.70;93.60
9881;DHT22;4979;51.014;6.678;2023-05-19T10:20:15;19.70;93.70
9881;DHT22;4979;51.014;6.678;2023-05-19T10:22:44;20.10;92.50
9881;DHT22;4979;51.014;6.678;2023-05-19T10:25:11;19.60;92.30
9881;DHT22;4979;51.014;6.678;2023-05-19T10:27:48;19.50;92.30
9881;DHT22;4979;51.014;6.678;2023-05-19T10:30:32;19.70;92.90
9881;DHT22;4979;51.014;6.678;2023-05-19T10:33:00;19.80;92.50
9881;DHT22;4979;51.014;6.678;2023-05-19T10:35:39;20.20;92.20
9881;DHT22;4979;51.014;6.678;2023-05-19T10:48:34;20.50;89.20
9881;DHT22;4979;51.014;6.678;2023-05-19T10:51:03;20.70;89.80
9881;DHT22;4979;51.014;6.678;2023-05-19T10:53:33;20.80;89.60
9881;DHT22;4979;51.014;6.678;2023-05-19T10:56:07;21.00;88.10
9881;DHT22;4979;51.014;6.678;2023-05-19T11:01:20;21.30;87.30
9881;DHT22;4979;51.014;6.678;2023-05-19T11:03:53;21.20;86.50
9881;DHT22;4979;51.014;6.678;2023-05-19T11:06:36;21.30;86.00
9881;DHT22;4979;51.014;6.678;2023-05-19T11:09:13;21.80;87.30
9881;DHT22;4979;51.014;6.678;2023-05-19T11:11:53;22.00;85.80
9881;DHT22;4979;51.014;6.678;2023-05-19T11:14:21;21.30;83.90
9881;DHT22;4979;51.014;6.678;2023-05-19T11:16:56;20.90;84.40
9881;DHT22;4979;51.014;6.678;2023-05-19T11:19:30;20.90;85.70
9881;DHT22;4979;51.014;6.678;2023-05-19T11:22:12;21.40;84.10
9881;DHT22;4979;51.014;6.678;2023-05-19T11:24:43;21.60;83.10
9881;DHT22;4979;51.014;6.678;2023-05-19T11:27:18;21.40;82.40
9881;DHT22;4979;51.014;6.678;2023-05-19T11:29:45;21.60;83.60
9881;DHT22;4979;51.014;6.678;2023-05-19T11:32:13;21.90;80.60
9881;DHT22;4979;51.014;6.678;2023-05-19T11:34:39;22.00;81.40
9881;DHT22;4979;51.014;6.678;2023-05-19T11:37:06;22.00;79.50
9881;DHT22;4979;51.014;6.678;2023-05-19T11:39:34;22.10;80.80
9881;DHT22;4979;51.014;6.678;2023-05-19T11:42:00;22.30;78.20
9881;DHT22;4979;51.014;6.678;2023-05-19T11:44:26;22.50;78.70
9881;DHT22;4979;51.014;6.678;2023-05-19T11:46:52;22.10;78.10
9881;DHT22;4979;51.014;6.678;2023-05-19T11:49:18;21.70;78.50
9881;DHT22;4979;51.014;6.678;2023-05-19T11:51:44;21.60;77.60
9881;DHT22;4979;51.014;6.678;2023-05-19T11:54:11;21.30;79.30
9881;DHT22;4979;51.014;6.678;2023-05-19T11:56:41;21.50;77.90
9881;DHT22;4979;51.014;6.678;2023-05-19T12:01:34;21.40;77.80
9881;DHT22;4979;51.014;6.678;2023-05-19T12:04:01;21.70;76.40
9881;DHT22;4979;51.014;6.678;2023-05-19T12:08:55;22.20;77.20
9881;DHT22;4979;51.014;6.678;2023-05-19T12:11:22;21.90;76.70
9881;DHT22;4979;51.014;6.678;2023-05-19T12:13:48;21.80;77.60
9881;DHT22;4979;51.014;6.678;2023-05-19T12:16:19;21.90;77.70
9881;DHT22;4979;51.014;6.678;2023-05-19T12:21:11;21.70;76.70
9881;DHT22;4979;51.014;6.678;2023-05-19T12:23:38;21.50;78.50
9881;DHT22;4979;51.014;6.678;2023-05-19T12:30:58;22.10;80.20
9881;DHT22;4979;51.014;6.678;2023-05-19T12:35:50;22.80;78.70
9881;DHT22;4979;51.014;6.678;2023-05-19T12:38:17;22.70;75.40
9881;DHT22;4979;51.014;6.678;2023-05-19T12:40:43;22.80;77.70
9881;DHT22;4979;51.014;6.678;2023-05-19T12:43:22;22.60;78.20
9881;DHT22;4979;51.014;6.678;2023-05-19T12:45:48;22.10;79.20
9881;DHT22;4979;51.014;6.678;2023-05-19T12:48:13;21.70;79.50
9881;DHT22;4979;51.014;6.678;2023-05-19T12:50:43;21.60;81.40
9881;DHT22;4979;51.014;6.678;2023-05-19T12:53:13;21.90;80.10
9881;DHT22;4979;51.014;6.678;2023-05-19T12:55:40;22.30;83.00
9881;DHT22;4979;51.014;6.678;2023-05-19T12:58:12;22.50;80.80
9881;DHT22;4979;51.014;6.678;2023-05-19T13:00:46;22.40;78.30
9881;DHT22;4979;51.014;6.678;2023-05-19T13:03:15;22.40;77.70
9881;DHT22;4979;51.014;6.678;2023-05-19T13:05:42;22.30;75.50
9881;DHT22;4979;51.014;6.678;2023-05-19T13:10:35;22.50;80.00
9881;DHT22;4979;51.014;6.678;2023-05-19T13:15:29;22.30;80.30
9881;DHT22;4979;51.014;6.678;2023-05-19T13:18:03;22.20;80.00
9881;DHT22;4979;51.014;6.678;2023-05-19T13:20:30;22.00;81.30
9881;DHT22;4979;51.014;6.678;2023-05-19T13:27:50;21.70;79.00
9881;DHT22;4979;51.014;6.678;2023-05-19T13:30:17;22.00;77.60
9881;DHT22;4979;51.014;6.678;2023-05-19T13:32:43;22.30;80.30
9881;DHT22;4979;51.014;6.678;2023-05-19T13:35:10;22.30;78.40
9881;DHT22;4979;51.014;6.678;2023-05-19T13:40:04;22.30;76.70
9881;DHT22;4979;51.014;6.678;2023-05-19T13:42:31;22.40;77.90
9881;DHT22;4979;51.014;6.678;2023-05-19T13:47:24;22.30;80.40
9881;DHT22;4979;51.014;6.678;2023-05-19T13:49:50;22.20;78.20
9881;DHT22;4979;51.014;6.678;2023-05-19T13:52:17;21.90;78.10
9881;DHT22;4979;51.014;6.678;2023-05-19T13:59:34;22.80;80.20
9881;DHT22;4979;51.014;6.678;2023-05-19T14:04:27;22.90;80.10
9881;DHT22;4979;51.014;6.678;2023-05-19T14:06:53;22.70;80.00
9881;DHT22;4979;51.014;6.678;2023-05-19T14:09:19;22.50;79.30
9881;DHT22;4979;51.014;6.678;2023-05-19T14:11:45;22.10;79.60
9881;DHT22;4979;51.014;6.678;2023-05-19T14:14:11;22.30;79.00
9881;DHT22;4979;51.014;6.678;2023-05-19T14:16:37;22.30;79.10
9881;DHT22;4979;51.014;6.678;2023-05-19T14:19:02;22.40;80.50
9881;DHT22;4979;51.014;6.678;2023-05-19T14:21:28;22.20;78.30
9881;DHT22;4979;51.014;6.678;2023-05-19T14:26:22;22.30;79.70
9881;DHT22;4979;51.014;6.678;2023-05-19T14:28:47;22.30;79.60
9881;DHT22;4979;51.014;6.678;2023-05-19T14:33:40;22.70;81.00
9881;DHT22;4979;51.014;6.678;2023-05-19T14:36:07;22.70;81.00
9881;DHT22;4979;51.014;6.678;2023-05-19T14:38:33;22.40;79.30
9881;DHT22;4979;51.014;6.678;2023-05-19T14:40:58;22.00;79.30
9881;DHT22;4979;51.014;6.678;2023-05-19T14:43:27;21.90;77.90
9881;DHT22;4979;51.014;6.678;2023-05-19T14:45:55;22.00;79.40
9881;DHT22;4979;51.014;6.678;2023-05-19T14:48:20;22.20;79.80
9881;DHT22;4979;51.014;6.678;2023-05-19T14:53:13;22.30;79.20
9881;DHT22;4979;51.014;6.678;2023-05-19T14:55:40;22.20;77.30
9881;DHT22;4979;51.014;6.678;2023-05-19T15:00:33;22.10;78.30
9881;DHT22;4979;51.014;6.678;2023-05-19T15:02:59;21.80;78.00
9881;DHT22;4979;51.014;6.678;2023-05-19T15:07:52;21.70;79.20
9881;DHT22;4979;51.014;6.678;2023-05-19T15:10:18;21.80;79.60
9881;DHT22;4979;51.014;6.678;2023-05-19T15:12:47;22.00;80.50
9881;DHT22;4979;51.014;6.678;2023-05-19T15:20:11;22.10;80.30
9881;DHT22;4979;51.014;6.678;2023-05-19T15:22:40;22.10;79.60
9881;DHT22;4979;51.014;6.678;2023-05-19T15:25:07;21.80;79.10
9881;DHT22;4979;51.014;6.678;2023-05-19T15:27:34;21.70;79.40
9881;DHT22;4979;51.014;6.678;2023-05-19T15:30:04;21.70;78.70
9881;DHT22;4979;51.014;6.678;2023-05-19T15:34:57;21.80;78.70
9881;DHT22;4979;51.014;6.678;2023-05-19T15:37:23;21.90;79.30
9881;DHT22;4979;51.014;6.678;2023-05-19T15:39:49;21.90;78.80
9881;DHT22;4979;51.014;6.678;2023-05-19T15:42:14;22.00;77.60
9881;DHT22;4979;51.014;6.678;2023-05-19T15:44:40;21.90;77.90
9881;DHT22;4979;51.014;6.678;2023-05-19T15:49:32;21.90;77.30
9881;DHT22;4979;51.014;6.678;2023-05-19T15:51:58;21.60;77.00
9881;DHT22;4979;51.014;6.678;2023-05-19T15:56:50;21.70;77.40
9881;DHT22;4979;51.014;6.678;2023-05-19T15:59:16;21.80;77.60
9881;DHT22;4979;51.014;6.678;2023-05-19T16:01:42;21.70;77.20
9881;DHT22;4979;51.014;6.678;2023-05-19T16:04:08;21.50;77.60
9881;DHT22;4979;51.014;6.678;2023-05-19T16:06:34;21.30;76.10
9881;DHT22;4979;51.014;6.678;2023-05-19T16:08:59;21.40;76.60
9881;DHT22;4979;51.014;6.678;2023-05-19T16:13:52;21.50;77.70
9881;DHT22;4979;51.014;6.678;2023-05-19T16:16:18;21.60;77.90
9881;DHT22;4979;51.014;6.678;2023-05-19T16:18:44;21.70;77.60
9881;DHT22;4979;51.014;6.678;2023-05-19T16:21:10;21.60;77.10
9881;DHT22;4979;51.014;6.678;2023-05-19T16:23:36;21.40;76.90
9881;DHT22;4979;51.014;6.678;2023-05-19T16:26:02;21.40;76.60
9881;DHT22;4979;51.014;6.678;2023-05-19T16:28:27;21.40;77.40
9881;DHT22;4979;51.014;6.678;2023-05-19T16:30:59;21.50;76.10
9881;DHT22;4979;51.014;6.678;2023-05-19T16:33:28;21.30;76.30
9881;DHT22;4979;51.014;6.678;2023-05-19T16:35:54;21.20;76.10
9881;DHT22;4979;51.014;6.678;2023-05-19T16:38:22;21.30;77.20
9881;DHT22;4979;51.014;6.678;2023-05-19T16:43:14;21.00;75.90
9881;DHT22;4979;51.014;6.678;2023-05-19T16:45:39;21.20;76.50
9881;DHT22;4979;51.014;6.678;2023-05-19T16:52:58;21.20;76.20
9881;DHT22;4979;51.014;6.678;2023-05-19T16:55:23;21.10;75.00
9881;DHT22;4979;51.014;6.678;2023-05-19T16:57:51;21.10;75.50
9881;DHT22;4979;51.014;6.678;2023-05-19T17:00:17;21.10;76.00
9881;DHT22;4979;51.014;6.678;2023-05-19T17:05:09;21.30;76.10
9881;DHT22;4979;51.014;6.678;2023-05-19T17:07:35;21.20;75.30
9881;DHT22;4979;51.014;6.678;2023-05-19T17:10:01;21.30;75.60
9881;DHT22;4979;51.014;6.678;2023-05-19T17:12:26;21.40;76.30
9881;DHT22;4979;51.014;6.678;2023-05-19T17:14:52;21.30;76.00
9881;DHT22;4979;51.014;6.678;2023-05-19T17:17:19;21.50;76.60
9881;DHT22;4979;51.014;6.678;2023-05-19T17:19:44;21.50;76.70
9881;DHT22;4979;51.014;6.678;2023-05-19T17:29:30;21.20;75.30
9881;DHT22;4979;51.014;6.678;2023-05-19T17:31:56;20.90;75.10
9881;DHT22;4979;51.014;6.678;2023-05-19T17:36:48;21.10;76.00
9881;DHT22;4979;51.014;6.678;2023-05-19T17:39:14;21.00;76.20
9881;DHT22;4979;51.014;6.678;2023-05-19T17:53:52;20.90;75.90
9881;DHT22;4979;51.014;6.678;2023-05-19T17:56:19;20.80;75.60
9881;DHT22;4979;51.014;6.678;2023-05-19T17:58:47;20.70;75.90
9881;DHT22;4979;51.014;6.678;2023-05-19T18:01:19;20.70;75.70
9881;DHT22;4979;51.014;6.678;2023-05-19T18:03:48;20.70;75.30
9881;DHT22;4979;51.014;6.678;2023-05-19T18:06:18;20.80;76.50
9881;DHT22;4979;51.014;6.678;2023-05-19T18:08:45;21.00;75.30
9881;DHT22;4979;51.014;6.678;2023-05-19T18:11:16;21.00;75.30
9881;DHT22;4979;51.014;6.678;2023-05-19T18:13:43;20.90;75.70
9881;DHT22;4979;51.014;6.678;2023-05-19T18:16:09;20.90;75.60
9881;DHT22;4979;51.014;6.678;2023-05-19T18:18:35;21.00;75.20
9881;DHT22;4979;51.014;6.678;2023-05-19T18:21:04;21.00;75.70
9881;DHT22;4979;51.014;6.678;2023-05-19T18:23:30;20.80;75.20
9881;DHT22;4979;51.014;6.678;2023-05-19T18:25:56;20.90;75.30
9881;DHT22;4979;51.014;6.678;2023-05-19T18:28:22;20.90;75.50
9881;DHT22;4979;51.014;6.678;2023-05-19T18:31:01;20.80;75.50
9881;DHT22;4979;51.014;6.678;2023-05-19T18:33:28;20.90;75.30
9881;DHT22;4979;51.014;6.678;2023-05-19T18:38:21;20.70;75.60
9881;DHT22;4979;51.014;6.678;2023-05-19T18:40:49;20.40;75.70
9881;DHT22;4979;51.014;6.678;2023-05-19T18:45:41;19.70;77.30
9881;DHT22;4979;51.014;6.678;2023-05-19T18:48:07;19.40;77.40
9881;DHT22;4979;51.014;6.678;2023-05-19T18:50:33;19.20;78.20
9881;DHT22;4979;51.014;6.678;2023-05-19T18:53:00;19.00;78.60
9881;DHT22;4979;51.014;6.678;2023-05-19T18:55:26;19.00;79.40
9881;DHT22;4979;51.014;6.678;2023-05-19T18:57:51;18.90;79.40
9881;DHT22;4979;51.014;6.678;2023-05-19T19:02:44;18.60;79.80
9881;DHT22;4979;51.014;6.678;2023-05-19T19:07:39;18.50;80.50
9881;DHT22;4979;51.014;6.678;2023-05-19T19:10:05;18.40;80.60
9881;DHT22;4979;51.014;6.678;2023-05-19T19:12:31;18.30;81.20
9881;DHT22;4979;51.014;6.678;2023-05-19T19:14:56;18.20;81.40
9881;DHT22;4979;51.014;6.678;2023-05-19T19:17:22;18.10;81.50
9881;DHT22;4979;51.014;6.678;2023-05-19T19:19:47;18.00;82.10
9881;DHT22;4979;51.014;6.678;2023-05-19T19:24:39;17.90;82.60
9881;DHT22;4979;51.014;6.678;2023-05-19T19:27:07;17.90;83.00
9881;DHT22;4979;51.014;6.678;2023-05-19T19:29:33;17.70;82.90
9881;DHT22;4979;51.014;6.678;2023-05-19T19:31:58;17.70;83.40
9881;DHT22;4979;51.014;6.678;2023-05-19T19:36:50;17.60;84.10
9881;DHT22;4979;51.014;6.678;2023-05-19T19:44:08;17.40;84.80
9881;DHT22;4979;51.014;6.678;2023-05-19T19:46:34;17.50;85.30
9881;DHT22;4979;51.014;6.678;2023-05-19T19:48:59;17.30;85.60
9881;DHT22;4979;51.014;6.678;2023-05-19T19:51:26;17.30;85.90
9881;DHT22;4979;51.014;6.678;2023-05-19T19:53:51;17.30;86.20
9881;DHT22;4979;51.014;6.678;2023-05-19T19:58:43;17.20;86.80
9881;DHT22;4979;51.014;6.678;2023-05-19T20:03:34;17.10;87.90
9881;DHT22;4979;51.014;6.678;2023-05-19T20:08:26;17.00;89.10
9881;DHT22;4979;51.014;6.678;2023-05-19T20:10:53;16.90;89.50
9881;DHT22;4979;51.014;6.678;2023-05-19T20:13:19;16.90;90.10
9881;DHT22;4979;51.014;6.678;2023-05-19T20:18:12;16.80;90.50
9881;DHT22;4979;51.014;6.678;2023-05-19T20:20:38;16.80;90.80
9881;DHT22;4979;51.014;6.678;2023-05-19T20:25:30;16.60;91.60
9881;DHT22;4979;51.014;6.678;2023-05-19T20:27:55;16.70;91.90
9881;DHT22;4979;51.014;6.678;2023-05-19T20:30:21;16.60;92.20
9881;DHT22;4979;51.014;6.678;2023-05-19T20:35:13;16.50;93.40
9881;DHT22;4979;51.014;6.678;2023-05-19T20:37:38;16.50;93.60
9881;DHT22;4979;51.014;6.678;2023-05-19T20:40:05;16.50;94.50
9881;DHT22;4979;51.014;6.678;2023-05-19T20:42:30;16.40;95.40
9881;DHT22;4979;51.014;6.678;2023-05-19T20:44:56;16.40;96.20
9881;DHT22;4979;51.014;6.678;2023-05-19T20:47:22;16.30;96.70